Time;durP1;ratioP1;P1;durP2;ratioP2;P2;SDS_P1;SDS_P2;PMS_P1;PMS_P2;Temp;Humidity;BMP_temperature;BMP_pressure;BME280_temperature;BME280_humidity;BME280_pressure;Samples;Min_cycle;Max_cycle;Signal;HPM_P1;HPM_P2
2022/06/23 00:01:42;;;;;;;3.90;3.30;;;;;;;17.23;61.72;100160.32;105564;1281;22615;-80
2022/06/23 00:04:14;;;;;;;4.70;3.70;;;;;;;17.23;62.10;100159.96;105400;1281;22544;-80
2022/06/23 00:06:59;;;;;;;3.60;3.30;;;;;;;17.22;62.02;100162.48;105214;1282;23017;-78
2022/06/23 00:09:39;;;;;;;5.80;3.90;;;;;;;17.19;62.05;100164.00;105697;1278;24254;-80
2022/06/23 00:12:22;;;;;;;9.10;3.70;;;;;;;17.17;62.35;100163.21;106684;1276;22538;-78
2022/06/23 00:14:56;;;;;;;5.80;4.10;;;;;;;17.16;62.45;100165.91;105822;1276;24440;-77
2022/06/23 00:17:32;;;;;;;5.00;4.20;;;;;;;17.12;62.56;100164.30;105969;1274;22618;-79
2022/06/23 00:20:01;;;;;;;;;;;;;;;17.10;62.71;100160.83;105918;1276;24046;-79
2022/06/23 00:22:30;;;;;;;5.90;3.80;;;;;;;17.04;62.67;100163.16;105905;1276;24381;-81
2022/06/23 00:25:03;;;;;;;5.20;3.70;;;;;;;17.01;62.79;100164.87;106026;1276;24129;-79
2022/06/23 00:27:33;;;;;;;6.20;3.90;;;;;;;16.98;62.80;100166.42;105810;1277;24206;-78
2022/06/23 00:30:06;;;;;;;5.80;3.60;;;;;;;16.96;62.96;100173.27;105926;1274;22969;-80
2022/06/23 00:32:32;;;;;;;7.60;3.30;;;;;;;16.93;63.08;100166.97;106099;1273;22549;-79
2022/06/23 00:35:04;;;;;;;7.30;4.10;;;;;;;16.93;63.19;100169.61;106371;1270;24158;-82
2022/06/23 00:37:30;;;;;;;6.60;4.10;;;;;;;16.94;63.18;100170.83;106184;1270;25271;-83
2022/06/23 00:40:05;;;;;;;5.20;3.60;;;;;;;16.94;63.37;100171.34;106282;1270;25390;-77
2022/06/23 00:42:35;;;;;;;6.30;4.40;;;;;;;16.96;63.54;100176.81;106082;1270;22658;-79
2022/06/23 00:45:11;;;;;;;6.00;4.20;;;;;;;16.96;63.48;100177.86;106006;1270;22637;-82
2022/06/23 00:47:50;;;;;;;5.60;3.80;;;;;;;16.97;63.43;100180.86;106191;1270;24448;-83
2022/06/23 00:50:44;;;;;;;7.10;4.30;;;;;;;16.97;63.49;100183.73;106205;1271;24234;-86
2022/06/23 00:53:11;;;;;;;8.40;4.60;;;;;;;16.94;63.51;100180.09;106055;1270;26655;-79
2022/06/23 00:56:00;;;;;;;8.20;4.70;;;;;;;16.93;63.64;100177.81;106396;1269;22703;-83
2022/06/23 00:58:26;;;;;;;5.50;4.00;;;;;;;16.88;63.75;100178.55;106253;1270;23899;-82
2022/06/23 01:01:00;;;;;;;5.30;4.30;;;;;;;16.87;63.76;100175.94;106522;1270;24214;-83
2022/06/23 01:03:38;;;;;;;7.80;4.00;;;;;;;16.85;63.59;100175.27;106206;1270;24231;-79
2022/06/23 01:06:07;;;;;;;5.60;4.30;;;;;;;16.81;63.91;100173.29;106366;1270;22544;-78
2022/06/23 01:08:37;;;;;;;6.10;4.10;;;;;;;16.78;64.04;100170.92;107095;1270;22483;-76
2022/06/23 01:11:36;;;;;;;7.10;4.30;;;;;;;16.76;64.07;100172.77;106810;1270;26511;-79
2022/06/23 01:14:27;;;;;;;7.50;3.70;;;;;;;16.73;64.29;100172.90;106636;1270;22575;-79
2022/06/23 01:17:19;;;;;;;5.40;4.00;;;;;;;16.71;64.27;100175.06;107213;1269;25380;-74
2022/06/23 01:20:01;;;;;;;5.20;4.10;;;;;;;16.73;64.57;100171.12;107106;1270;23019;-81
2022/06/23 01:22:50;;;;;;;5.10;3.80;;;;;;;16.74;64.68;100171.27;107020;1270;22527;-79
2022/06/23 01:25:19;;;;;;;7.10;4.50;;;;;;;16.75;64.67;100173.86;106479;1270;24238;-77
2022/06/23 01:27:56;;;;;;;5.10;3.90;;;;;;;16.77;64.70;100176.84;106270;1270;23495;-82
2022/06/23 01:30:26;;;;;;;10.50;4.50;;;;;;;16.74;64.97;100179.42;106433;1270;22706;-76
2022/06/23 01:33:21;;;;;;;5.90;4.70;;;;;;;16.74;65.02;100183.71;106215;1270;25315;-77
2022/06/23 01:35:57;;;;;;;6.30;4.90;;;;;;;16.72;64.97;100186.27;106284;1270;23527;-77
2022/06/23 01:39:01;;;;;;;5.20;4.40;;;;;;;16.69;64.91;100189.95;106245;1270;22551;-80
2022/06/23 01:41:31;;;;;;;6.00;4.70;;;;;;;16.65;65.04;100193.83;106114;1272;22738;-78
2022/06/23 01:44:09;;;;;;;6.90;4.60;;;;;;;16.63;65.08;100193.55;106140;1274;22589;-76
2022/06/23 01:46:41;;;;;;;6.70;4.10;;;;;;;16.60;65.24;100191.70;105448;1279;25595;-75
2022/06/23 01:49:20;;;;;;;6.80;4.50;;;;;;;16.57;65.30;100188.22;105808;1279;22560;-80
2022/06/23 01:51:56;;;;;;;5.60;4.50;;;;;;;16.57;65.31;100189.27;105671;1279;22701;-77
2022/06/23 01:54:22;;;;;;;6.90;4.50;;;;;;;16.56;65.39;100190.92;105496;1280;24579;-75
2022/06/23 01:57:07;;;;;;;4.90;4.10;;;;;;;16.56;65.33;100192.54;105719;1280;23029;-77
2022/06/23 01:59:52;;;;;;;5.30;4.30;;;;;;;16.56;65.28;100191.84;105804;1276;22722;-80
2022/06/23 02:02:37;;;;;;;6.40;4.20;;;;;;;16.51;65.61;100193.79;106061;1277;25492;-80
2022/06/23 02:05:13;;;;;;;6.30;4.40;;;;;;;16.47;65.50;100194.66;106094;1271;24269;-77
2022/06/23 02:07:39;;;;;;;7.10;4.20;;;;;;;16.42;65.77;100195.35;106195;1270;22555;-75
2022/06/23 02:10:21;;;;;;;5.70;4.10;;;;;;;16.38;65.61;100190.88;106378;1270;24248;-74
2022/06/23 02:12:59;;;;;;;6.30;4.40;;;;;;;16.35;65.91;100190.27;106923;1270;23380;-78
2022/06/23 02:15:59;;;;;;;8.30;4.40;;;;;;;16.32;66.05;100193.92;107288;1270;22586;-75
2022/06/23 02:18:43;;;;;;;5.20;3.90;;;;;;;16.30;66.15;100193.11;106491;1270;22717;-78
2022/06/23 02:21:36;;;;;;;5.30;4.10;;;;;;;16.31;66.09;100194.31;106258;1270;26005;-72
2022/06/23 02:24:18;;;;;;;7.40;3.90;;;;;;;16.32;66.30;100196.26;106271;1270;22547;-73
2022/06/23 02:27:06;;;;;;;8.50;4.30;;;;;;;16.31;66.67;100198.43;106339;1270;22713;-74
2022/06/23 02:29:45;;;;;;;5.80;4.40;;;;;;;16.30;66.56;100198.80;106262;1269;24782;-76
2022/06/23 02:32:23;;;;;;;5.30;4.20;;;;;;;16.30;66.48;100196.67;106523;1270;22550;-75
2022/06/23 02:35:09;;;;;;;5.80;4.50;;;;;;;16.31;66.44;100197.54;106775;1270;25519;-75
2022/06/23 02:38:11;;;;;;;6.20;4.70;;;;;;;16.32;66.29;100201.07;106120;1270;22553;-76
2022/06/23 02:41:06;;;;;;;6.40;5.20;;;;;;;16.28;66.53;100205.63;106399;1270;25740;-80
2022/06/23 02:43:58;;;;;;;6.70;4.70;;;;;;;16.25;66.48;100207.90;106383;1270;25613;-77
2022/06/23 02:46:59;;;;;;;7.10;4.70;;;;;;;16.21;66.74;100213.52;106365;1270;25499;-78
2022/06/23 02:49:55;;;;;;;10.50;4.70;;;;;;;16.17;66.90;100212.44;106132;1270;24352;-79
2022/06/23 02:52:36;;;;;;;5.70;4.40;;;;;;;16.18;66.90;100218.80;106095;1271;24274;-76
2022/06/23 02:55:27;;;;;;;5.80;4.50;;;;;;;16.20;67.13;100224.40;106567;1270;24294;-79
2022/06/23 02:58:30;;;;;;;5.90;4.30;;;;;;;16.22;67.10;100226.64;106170;1270;22577;-74
2022/06/23 03:01:26;;;;;;;6.80;4.80;;;;;;;16.20;66.97;100224.02;105898;1270;24123;-80
2022/06/23 03:04:20;;;;;;;7.30;4.80;;;;;;;16.17;67.17;100223.79;106342;1270;24241;-81
2022/06/23 03:07:22;;;;;;;4.70;4.10;;;;;;;16.17;66.89;100227.52;106113;1270;22726;-74
2022/06/23 03:09:59;;;;;;;8.10;4.10;;;;;;;16.19;67.20;100225.50;106311;1270;22564;-75
2022/06/23 03:12:34;;;;;;;5.00;4.50;;;;;;;16.19;67.15;100228.67;106310;1270;22771;-77
2022/06/23 03:15:08;;;;;;;6.60;4.20;;;;;;;16.19;67.09;100226.90;106125;1270;22843;-78
2022/06/23 03:17:34;;;;;;;6.80;4.10;;;;;;;16.20;66.91;100230.61;106035;1270;22713;-77
2022/06/23 03:20:09;;;;;;;5.10;3.70;;;;;;;16.22;66.79;100233.57;106452;1270;22549;-73
2022/06/23 03:22:42;;;;;;;6.20;3.70;;;;;;;16.25;67.11;100237.56;107206;1270;23938;-74
2022/06/23 03:25:20;;;;;;;5.20;4.40;;;;;;;16.26;66.95;100240.91;106501;1270;22590;-72
2022/06/23 03:27:53;;;;;;;5.00;4.40;;;;;;;16.26;66.78;100243.91;106070;1270;26516;-75
2022/06/23 03:30:52;;;;;;;7.00;4.60;;;;;;;16.29;66.85;100248.40;106177;1270;22565;-77
2022/06/23 03:33:37;;;;;;;5.30;4.40;;;;;;;16.30;66.77;100247.13;106200;1270;22557;-75
2022/06/23 03:36:19;;;;;;;5.20;4.30;;;;;;;16.32;66.55;100248.85;106159;1270;22560;-79
2022/06/23 03:42:07;;;;;;;5.80;4.20;;;;;;;16.32;66.77;100248.14;106638;1268;25475;-75
2022/06/23 03:44:59;;;;;;;5.20;4.40;;;;;;;16.32;66.86;100248.86;106022;1276;22514;-77
2022/06/23 03:47:35;;;;;;;;;;;;;;;16.32;66.67;100251.86;105911;1276;24230;-76
2022/06/23 03:50:14;;;;;;;5.60;3.60;;;;;;;16.31;66.85;100252.09;106111;1274;22610;-77
2022/06/23 03:52:44;;;;;;;5.20;4.40;;;;;;;16.31;66.76;100252.79;106476;1276;23934;-74
2022/06/23 03:55:25;;;;;;;6.70;4.70;;;;;;;16.36;66.74;100257.95;106891;1276;22541;-73
2022/06/23 03:58:01;;;;;;;9.80;4.70;;;;;;;16.41;66.64;100258.14;106378;1276;22629;-78
2022/06/23 04:00:34;;;;;;;5.40;4.20;;;;;;;16.47;66.64;100261.83;106038;1276;24273;-74
2022/06/23 04:03:30;;;;;;;6.60;4.60;;;;;;;16.51;66.56;100262.77;106356;1270;24355;-77
2022/06/23 04:05:56;;;;;;;8.70;4.60;;;;;;;16.55;66.51;100265.09;106360;1270;24288;-78
2022/06/23 04:08:26;;;;;;;6.40;5.00;;;;;;;16.57;66.48;100271.23;106272;1270;22529;-77
2022/06/23 04:10:58;;;;;;;7.50;5.00;;;;;;;16.62;66.47;100269.33;106249;1271;24239;-78
2022/06/23 04:13:38;;;;;;;9.00;4.90;;;;;;;16.66;66.56;100265.63;106181;1270;24173;-77
2022/06/23 04:16:10;;;;;;;5.90;4.40;;;;;;;16.70;66.56;100269.90;106189;1270;22531;-78
2022/06/23 04:18:41;;;;;;;7.90;4.80;;;;;;;16.75;66.68;100276.11;106067;1270;24441;-79
2022/06/23 04:21:19;;;;;;;9.70;4.20;;;;;;;16.80;66.65;100278.95;105915;1270;267987;-79
2022/06/23 04:23:52;;;;;;;9.10;4.80;;;;;;;16.88;66.48;100284.00;106123;1270;25486;-75
2022/06/23 04:26:25;;;;;;;9.00;4.50;;;;;;;16.94;66.52;100285.55;106300;1270;22551;-75
2022/06/23 04:28:56;;;;;;;7.50;4.90;;;;;;;17.02;66.40;100293.11;106028;1272;24075;-77
2022/06/23 04:31:30;;;;;;;9.50;4.70;;;;;;;17.08;66.42;100296.46;106139;1271;22531;-76
2022/06/23 04:33:58;;;;;;;8.30;4.40;;;;;;;17.15;66.52;100299.77;106163;1270;24283;-75
2022/06/23 04:36:31;;;;;;;7.30;5.10;;;;;;;17.18;66.24;100301.23;106317;1270;22554;-76
2022/06/23 04:39:34;;;;;;;5.90;4.60;;;;;;;17.23;66.27;100301.59;105894;1275;24421;-82
2022/06/23 04:42:23;;;;;;;10.10;5.10;;;;;;;17.27;66.32;100306.77;105803;1276;22550;-81
2022/06/23 04:44:55;;;;;;;11.70;5.50;;;;;;;17.28;66.24;100308.89;105626;1276;24357;-80
2022/06/23 04:47:31;;;;;;;9.10;4.30;;;;;;;17.30;66.29;100313.41;105828;1276;22759;-75
2022/06/23 04:50:09;;;;;;;12.40;4.80;;;;;;;17.32;66.31;100317.98;105925;1276;22875;-77
2022/06/23 04:52:44;;;;;;;10.90;4.50;;;;;;;17.37;66.27;100320.83;106134;1276;24372;-82
2022/06/23 04:55:30;;;;;;;10.50;4.90;;;;;;;17.41;66.08;100323.17;106147;1276;25347;-75
2022/06/23 04:58:06;;;;;;;8.70;4.80;;;;;;;17.42;65.83;100327.73;106075;1276;25529;-81
2022/06/23 05:00:53;;;;;;;11.30;4.40;;;;;;;17.45;66.03;100330.31;106052;1280;22606;-75
2022/06/23 05:03:36;;;;;;;8.00;4.90;;;;;;;17.49;65.78;100333.86;106249;1277;22553;-79
2022/06/23 05:06:28;;;;;;;10.60;4.80;;;;;;;17.54;65.71;100339.77;106107;1274;22645;-82
2022/06/23 05:09:01;;;;;;;8.20;4.50;;;;;;;17.52;65.49;100343.21;105989;1274;25401;-80
2022/06/23 05:11:33;;;;;;;7.50;4.20;;;;;;;17.53;65.56;100346.89;106003;1272;25294;-78
2022/06/23 05:14:13;;;;;;;6.40;4.60;;;;;;;17.57;65.44;100347.65;105938;1274;25680;-76
2022/06/23 05:16:44;;;;;;;10.60;4.20;;;;;;;17.57;65.28;100349.42;106007;1274;24743;-76
2022/06/23 05:19:19;;;;;;;9.10;4.60;;;;;;;17.61;65.08;100355.88;106351;1271;25547;-75
2022/06/23 05:21:51;;;;;;;6.30;4.00;;;;;;;17.63;64.99;100362.55;106125;1273;22559;-75
2022/06/23 05:24:28;;;;;;;7.40;4.00;;;;;;;17.67;65.10;100363.46;106216;1273;22575;-75
2022/06/23 05:27:18;;;;;;;9.70;3.60;;;;;;;17.71;64.92;100364.02;106217;1273;23577;-77
2022/06/23 05:29:53;;;;;;;6.10;3.20;;;;;;;17.79;64.67;100361.94;106310;1270;22540;-76
2022/06/23 05:32:22;;;;;;;6.80;3.50;;;;;;;17.88;64.61;100361.22;106421;1270;24193;-75
2022/06/23 05:35:15;;;;;;;11.80;4.00;;;;;;;17.97;64.37;100361.02;106196;1270;25530;-76
2022/06/23 05:38:00;;;;;;;8.60;3.90;;;;;;;18.07;64.20;100366.16;106504;1270;24241;-72
2022/06/23 05:40:26;;;;;;;6.70;3.80;;;;;;;18.11;64.03;100368.33;107096;1270;22636;-78
2022/06/23 05:42:55;;;;;;;6.80;3.60;;;;;;;18.15;63.86;100366.20;107546;1270;23021;-77
2022/06/23 05:45:48;;;;;;;5.60;3.20;;;;;;;18.18;63.74;100369.13;106385;1270;25393;-76
2022/06/23 05:48:23;;;;;;;7.00;3.80;;;;;;;18.24;63.54;100368.54;106316;1270;22537;-77
2022/06/23 05:50:56;;;;;;;6.70;3.30;;;;;;;18.28;63.53;100366.42;106641;1270;22536;-74
2022/06/23 05:53:29;;;;;;;5.90;3.80;;;;;;;18.30;63.29;100365.62;106873;1270;22534;-76
2022/06/23 05:56:02;;;;;;;7.00;3.70;;;;;;;18.32;63.09;100365.53;106115;1273;23986;-81
2022/06/23 05:58:41;;;;;;;6.60;3.40;;;;;;;18.34;63.01;100368.46;106521;1270;22538;-79
2022/06/23 06:01:28;;;;;;;5.00;3.20;;;;;;;18.37;62.98;100374.05;106438;1270;25338;-79
2022/06/23 06:04:17;;;;;;;5.70;3.30;;;;;;;18.40;62.90;100376.95;106017;1274;22548;-75
2022/06/23 06:06:45;;;;;;;8.20;4.10;;;;;;;18.43;62.82;100375.20;105943;1274;25478;-74
2022/06/23 06:12:04;;;;;;;7.40;3.40;;;;;;;18.48;62.64;100382.68;105868;1274;24240;-77
2022/06/23 06:14:35;;;;;;;10.30;3.80;;;;;;;18.48;62.54;100381.60;105873;1274;22557;-78
2022/06/23 06:17:06;;;;;;;8.40;3.20;;;;;;;18.53;62.31;100387.27;105925;1274;25325;-77
2022/06/23 06:19:34;;;;;;;10.80;3.30;;;;;;;18.58;62.21;100392.64;106039;1274;22704;-76
2022/06/23 06:22:52;;;;;;;6.00;3.20;;;;;;;18.59;62.16;100395.09;105991;1270;22636;-78
2022/06/23 06:25:29;;;;;;;9.30;3.50;;;;;;;18.59;61.99;100398.30;105654;1279;26653;-75
2022/06/23 06:28:01;;;;;;;8.90;3.40;;;;;;;18.64;62.16;100400.21;106088;1270;24287;-77
2022/06/23 06:30:35;;;;;;;6.40;3.40;;;;;;;18.70;62.08;100397.11;106296;1270;23094;-78
2022/06/23 06:33:01;;;;;;;10.50;3.90;;;;;;;18.74;61.75;100401.55;106248;1270;22663;-76
2022/06/23 06:35:38;;;;;;;8.40;3.10;;;;;;;18.78;61.63;100400.14;106298;1270;24443;-79
2022/06/23 06:38:17;;;;;;;7.60;3.00;;;;;;;18.84;61.55;100405.62;105982;1273;22579;-75
2022/06/23 06:40:47;;;;;;;8.30;3.40;;;;;;;18.89;61.29;100404.85;106124;1270;22845;-77
2022/06/23 06:43:31;;;;;;;7.90;3.10;;;;;;;18.93;61.38;100406.09;106143;1273;24332;-76
2022/06/23 06:45:58;;;;;;;7.20;3.10;;;;;;;19.00;61.30;100410.09;106066;1270;22704;-78
2022/06/23 06:48:32;;;;;;;7.20;3.40;;;;;;;19.04;61.25;100409.73;106229;1270;24357;-77
2022/06/23 06:51:13;;;;;;;14.50;3.20;;;;;;;19.08;61.06;100416.34;105982;1270;24420;-75
2022/06/23 06:53:49;;;;;;;5.40;3.00;;;;;;;19.12;60.28;100416.73;106084;1270;22567;-78
2022/06/23 06:56:33;;;;;;;5.70;3.20;;;;;;;19.15;59.96;100413.05;106219;1270;25521;-77
2022/06/23 06:59:03;;;;;;;7.80;2.60;;;;;;;19.21;60.18;100415.08;106137;1270;24547;-77
2022/06/23 07:01:35;;;;;;;7.80;3.30;;;;;;;19.27;59.75;100419.42;106239;1270;25581;-77
2022/06/23 07:04:02;;;;;;;4.30;2.80;;;;;;;19.34;59.56;100415.95;106207;1270;26738;-76
2022/06/23 07:06:36;;;;;;;6.70;3.20;;;;;;;19.38;59.35;100414.31;106158;1270;24297;-75
2022/06/23 07:09:25;;;;;;;5.90;2.70;;;;;;;19.43;58.97;100415.33;106258;1273;22552;-77
2022/06/23 07:12:04;;;;;;;8.20;2.70;;;;;;;19.51;58.55;100418.36;106347;1270;25260;-76
2022/06/23 07:14:40;;;;;;;7.30;2.90;;;;;;;19.59;58.34;100423.90;105686;1279;24274;-77
2022/06/23 07:17:14;;;;;;;3.60;2.20;;;;;;;19.65;58.12;100429.89;105791;1276;24242;-79
2022/06/23 07:19:46;;;;;;;4.70;2.50;;;;;;;19.68;57.82;100435.45;105776;1276;24398;-77
2022/06/23 07:22:41;;;;;;;10.90;3.00;;;;;;;19.72;57.70;100431.88;105892;1279;22621;-76
2022/06/23 07:25:18;;;;;;;5.80;2.70;;;;;;;19.81;57.59;100429.84;105798;1277;24255;-75
2022/06/23 07:27:54;;;;;;;6.00;2.70;;;;;;;19.89;56.82;100431.44;105662;1280;22579;-79
2022/06/23 07:30:40;;;;;;;5.10;2.50;;;;;;;19.97;56.90;100430.16;105518;1279;24102;-78
2022/06/23 07:33:35;;;;;;;4.50;2.20;;;;;;;20.06;56.26;100427.48;105840;1277;25650;-79
2022/06/23 07:36:11;;;;;;;3.90;2.30;;;;;;;20.13;55.83;100431.08;105974;1276;22645;-76
2022/06/23 07:38:51;;;;;;;7.00;2.80;;;;;;;20.22;55.88;100436.36;105974;1277;25609;-77
2022/06/23 07:41:45;;;;;;;6.30;2.60;;;;;;;20.30;55.66;100434.73;105723;1278;23563;-76
2022/06/23 07:44:17;;;;;;;7.30;3.10;;;;;;;20.37;55.91;100433.13;105724;1276;22825;-76
2022/06/23 07:46:44;;;;;;;4.80;2.60;;;;;;;20.44;55.86;100437.23;106252;1271;22617;-78
2022/06/23 07:49:10;;;;;;;3.70;2.80;;;;;;;20.51;55.47;100440.30;106139;1271;22541;-78
2022/06/23 07:51:38;;;;;;;3.20;2.40;;;;;;;20.59;54.90;100438.48;106619;1271;25432;-78
2022/06/23 07:54:06;;;;;;;4.50;2.70;;;;;;;20.69;54.73;100440.31;106470;1273;22554;-79
2022/06/23 07:56:37;;;;;;;8.30;2.70;;;;;;;20.74;54.22;100439.70;106145;1269;25269;-77
2022/06/23 07:59:09;;;;;;;3.50;2.30;;;;;;;20.83;54.49;100439.58;106107;1273;22863;-78
2022/06/23 08:01:58;;;;;;;3.60;2.40;;;;;;;20.96;54.33;100437.00;106204;1273;23933;-79
2022/06/23 08:04:36;;;;;;;5.60;2.70;;;;;;;21.14;54.88;100435.70;106086;1276;22557;-75
2022/06/23 08:07:08;;;;;;;2.90;1.90;;;;;;;21.34;53.98;100438.02;106258;1270;22547;-78
2022/06/23 08:09:40;;;;;;;3.60;2.20;;;;;;;21.49;52.88;100434.75;106232;1270;25275;-77
2022/06/23 08:18:04;;;;;;;2.80;1.90;;;;;;;21.55;50.49;100428.01;106158;1270;26731;-84
2022/06/23 08:20:36;;;;;;;2.40;2.00;;;;;;;21.69;49.91;100430.27;106655;1270;22747;-76
2022/06/23 08:23:06;;;;;;;2.80;1.70;;;;;;;21.82;49.99;100428.14;106269;1274;23060;-77
2022/06/23 08:25:32;;;;;;;2.50;1.70;;;;;;;21.99;49.99;100428.25;106521;1270;22828;-79
2022/06/23 08:27:59;;;;;;;4.20;1.90;;;;;;;22.16;49.71;100433.42;106289;1270;23088;-79
2022/06/23 08:30:27;;;;;;;2.30;1.80;;;;;;;22.30;49.66;100429.95;106314;1270;23979;-76
2022/06/23 08:32:57;;;;;;;2.50;1.80;;;;;;;22.28;49.28;100434.35;106062;1272;24306;-78
2022/06/23 08:35:31;;;;;;;3.10;2.10;;;;;;;22.28;49.81;100432.20;106065;1274;25614;-77
2022/06/23 08:38:20;;;;;;;3.70;2.50;;;;;;;22.43;49.85;100433.30;106085;1270;25575;-77
2022/06/23 08:41:12;;;;;;;2.00;1.80;;;;;;;22.58;49.74;100424.94;106050;1273;25271;-76
2022/06/23 08:44:12;;;;;;;3.10;2.10;;;;;;;22.77;48.78;100425.84;106366;1272;23079;-78
2022/06/23 08:46:45;;;;;;;2.40;2.20;;;;;;;22.97;48.84;100429.83;106374;1270;22653;-77
2022/06/23 08:49:27;;;;;;;4.30;2.20;;;;;;;23.17;48.57;100436.17;106208;1270;22549;-78
2022/06/23 08:51:58;;;;;;;3.20;2.30;;;;;;;23.35;48.48;100439.38;106348;1270;22820;-77
2022/06/23 08:54:43;;;;;;;3.30;1.90;;;;;;;23.52;47.55;100434.60;106537;1270;22725;-77
2022/06/23 08:57:33;;;;;;;5.40;1.90;;;;;;;23.61;45.93;100431.85;106171;1272;23943;-79
2022/06/23 09:00:32;;;;;;;6.00;2.30;;;;;;;23.55;46.32;100430.48;106218;1270;22754;-79
2022/06/23 09:03:16;;;;;;;3.00;1.90;;;;;;;23.36;45.40;100433.21;106003;1270;22628;-75
2022/06/23 09:05:51;;;;;;;3.90;1.60;;;;;;;23.35;45.09;100435.58;105993;1270;24273;-76
2022/06/23 09:08:34;;;;;;;2.70;2.20;;;;;;;23.42;44.72;100431.59;106047;1271;22573;-79
2022/06/23 09:11:43;;;;;;;4.70;2.40;;;;;;;23.55;44.83;100430.80;106104;1270;25423;-76
2022/06/23 09:14:39;;;;;;;2.20;2.00;;;;;;;23.68;45.24;100430.70;105921;1276;23965;-81
2022/06/23 09:17:17;;;;;;;6.00;2.20;;;;;;;23.84;44.84;100434.20;105054;1281;23948;-83
2022/06/23 09:20:18;;;;;;;2.50;2.00;;;;;;;23.94;44.15;100435.55;105496;1281;22544;-80
2022/06/23 09:23:16;;;;;;;3.60;1.90;;;;;;;24.07;43.93;100436.71;105621;1281;24638;-79
2022/06/23 09:25:42;;;;;;;4.40;2.10;;;;;;;24.13;43.46;100437.00;105745;1281;26682;-80
2022/06/23 09:28:15;;;;;;;4.30;1.50;;;;;;;24.26;43.77;100435.13;105420;1281;22688;-82
2022/06/23 09:30:56;;;;;;;3.00;2.10;;;;;;;24.45;43.82;100442.86;105329;1283;22647;-78
2022/06/23 09:33:47;;;;;;;3.80;1.70;;;;;;;24.66;42.58;100445.44;105486;1282;24330;-77
2022/06/23 09:36:22;;;;;;;1.90;1.60;;;;;;;24.82;41.73;100441.32;105381;1282;24295;-76
2022/06/23 09:39:11;;;;;;;3.20;1.60;;;;;;;24.96;40.96;100449.92;105912;1278;25870;-76
2022/06/23 09:42:20;;;;;;;2.40;1.60;;;;;;;24.96;39.97;100448.83;105924;1278;22565;-77
2022/06/23 09:44:46;;;;;;;3.60;1.80;;;;;;;24.98;40.46;100451.61;105382;1282;22570;-79
2022/06/23 09:47:41;;;;;;;3.50;1.90;;;;;;;25.06;40.46;100451.96;105832;1278;25378;-78
2022/06/23 09:50:28;;;;;;;3.50;1.90;;;;;;;25.00;40.57;100448.05;105573;1279;22743;-80
2022/06/23 09:53:08;;;;;;;5.50;2.00;;;;;;;25.22;40.73;100447.97;105653;1278;22762;-77
2022/06/23 09:56:01;;;;;;;3.60;1.90;;;;;;;25.42;41.02;100452.70;106058;1270;22554;-76
2022/06/23 09:58:34;;;;;;;3.60;1.60;;;;;;;25.63;40.99;100453.06;106169;1271;22722;-78
2022/06/23 10:01:33;;;;;;;4.10;1.50;;;;;;;25.83;40.34;100455.94;106182;1270;25314;-78
2022/06/23 10:04:23;;;;;;;3.90;1.60;;;;;;;26.03;39.92;100455.05;106161;1270;26000;-78
2022/06/23 10:07:21;;;;;;;2.30;1.80;;;;;;;26.12;39.27;100446.84;106296;1271;23969;-80
2022/06/23 10:10:12;;;;;;;3.60;1.90;;;;;;;26.22;39.66;100441.77;106131;1273;22576;-78
2022/06/23 10:12:45;;;;;;;1.90;1.70;;;;;;;26.49;39.58;100444.11;106236;1270;24231;-78
2022/06/23 10:15:36;;;;;;;2.20;1.70;;;;;;;26.78;39.32;100437.78;106545;1270;24247;-77
2022/06/23 10:18:17;;;;;;;3.00;1.70;;;;;;;27.04;38.47;100433.65;106703;1270;23946;-80
2022/06/23 10:21:11;;;;;;;1.80;1.40;;;;;;;27.00;38.28;100438.12;106530;1271;23291;-77
2022/06/23 10:24:01;;;;;;;3.30;2.20;;;;;;;26.72;37.97;100443.70;106541;1271;22856;-77
2022/06/23 10:27:16;;;;;;;5.70;2.00;;;;;;;26.43;38.19;100452.86;106365;1272;22919;-80
2022/06/23 10:30:06;;;;;;;2.60;2.00;;;;;;;26.14;38.31;100452.44;106439;1270;22486;-76
2022/06/23 10:33:14;;;;;;;4.50;2.50;;;;;;;26.07;38.04;100451.37;106650;1272;22547;-83
2022/06/23 10:35:59;;;;;;;5.20;1.90;;;;;;;26.25;38.42;100448.05;106591;1270;22728;-74
2022/06/23 10:38:28;;;;;;;2.90;1.60;;;;;;;26.53;38.07;100450.71;106131;1271;22557;-77
2022/06/23 10:41:20;;;;;;;2.50;1.60;;;;;;;26.78;37.50;100450.60;106380;1270;22706;-79
2022/06/23 10:44:22;;;;;;;2.70;1.70;;;;;;;26.96;36.67;100449.40;106859;1270;22489;-76
2022/06/23 10:47:11;;;;;;;3.80;1.40;;;;;;;27.23;36.41;100451.86;106245;1270;22559;-82
2022/06/23 10:50:05;;;;;;;3.00;1.60;;;;;;;27.48;35.85;100449.37;106314;1270;22544;-79
2022/06/23 10:53:07;;;;;;;2.00;1.20;;;;;;;27.66;35.22;100446.88;106477;1271;22551;-82
2022/06/23 10:55:53;;;;;;;2.60;1.50;;;;;;;27.90;35.27;100442.68;106408;1271;22730;-77
2022/06/23 10:58:29;;;;;;;3.10;1.90;;;;;;;28.16;35.19;100441.06;106245;1270;25536;-80
2022/06/23 11:00:58;;;;;;;;;;;;;;;28.17;34.96;100441.32;106353;1270;22541;-80
2022/06/23 11:03:43;;;;;;;4.30;1.60;;;;;;;27.94;35.03;100453.52;106821;1272;22555;-77
2022/06/23 11:06:34;;;;;;;2.20;1.50;;;;;;;27.83;35.14;100449.70;107219;1273;22561;-78
2022/06/23 11:09:33;;;;;;;2.50;1.70;;;;;;;27.95;34.88;100448.61;106796;1270;26522;-78
2022/06/23 11:12:29;;;;;;;3.50;1.50;;;;;;;27.79;34.66;100451.27;106297;1270;22694;-81
2022/06/23 11:15:23;;;;;;;2.80;1.40;;;;;;;28.03;34.80;100451.70;106349;1271;25567;-79
2022/06/23 11:18:11;;;;;;;1.90;1.40;;;;;;;28.20;33.95;100444.89;106171;1271;22903;-79
2022/06/23 11:20:59;;;;;;;2.90;1.40;;;;;;;28.12;33.65;100448.44;106278;1271;25257;-78
2022/06/23 11:23:44;;;;;;;1.10;1.00;;;;;;;28.24;33.97;100446.71;106309;1271;24232;-77
2022/06/23 11:26:22;;;;;;;2.90;1.20;;;;;;;28.47;33.92;100451.20;106242;1271;26563;-78
2022/06/23 11:28:51;;;;;;;1.90;1.40;;;;;;;28.73;33.49;100452.98;106394;1271;22539;-79
2022/06/23 11:31:42;;;;;;;1.50;1.30;;;;;;;28.93;33.27;100450.23;106286;1270;25516;-80
2022/06/23 11:34:34;;;;;;;2.40;1.30;;;;;;;29.22;32.77;100449.05;106289;1271;25307;-79
2022/06/23 11:37:18;;;;;;;1.40;1.30;;;;;;;29.41;32.87;100444.90;106435;1271;22674;-79
2022/06/23 11:40:12;;;;;;;1.30;1.20;;;;;;;29.53;32.45;100445.50;106353;1271;26581;-80
2022/06/23 11:43:14;;;;;;;3.20;1.80;;;;;;;29.72;32.43;100445.23;106309;1271;26965;-79
2022/06/23 11:45:46;;;;;;;1.70;1.40;;;;;;;29.91;32.14;100446.08;106182;1271;22670;-79
2022/06/23 11:48:27;;;;;;;1.50;1.30;;;;;;;29.88;32.11;100450.60;106252;1271;22677;-80
2022/06/23 11:51:03;;;;;;;1.80;1.50;;;;;;;29.57;32.12;100451.27;106325;1270;22554;-82
2022/06/23 11:53:58;;;;;;;1.70;1.40;;;;;;;29.24;32.13;100446.88;106138;1274;24382;-80
2022/06/23 11:56:42;;;;;;;6.60;1.40;;;;;;;29.27;32.33;100453.85;106186;1271;24308;-78
2022/06/23 11:59:24;;;;;;;2.00;1.30;;;;;;;29.47;31.75;100447.45;106114;1274;22556;-81
2022/06/23 12:02:10;;;;;;;1.60;1.20;;;;;;;29.68;31.32;100448.90;106133;1272;22542;-76
2022/06/23 12:04:59;;;;;;;3.80;1.40;;;;;;;29.87;31.04;100451.42;106065;1271;22571;-79
2022/06/23 12:07:44;;;;;;;1.80;1.20;;;;;;;30.06;30.33;100446.98;106349;1270;23922;-78
2022/06/23 12:10:25;;;;;;;2.60;1.40;;;;;;;30.00;30.00;100444.06;106203;1271;22575;-77
2022/06/23 12:12:56;;;;;;;3.20;1.50;;;;;;;30.06;30.01;100446.08;106265;1271;24239;-79
2022/06/23 12:15:30;;;;;;;2.70;1.70;;;;;;;30.16;30.24;100440.29;106098;1273;25443;-78
2022/06/23 12:18:04;;;;;;;4.00;1.50;;;;;;;30.07;30.32;100442.17;106035;1271;22508;-82
2022/06/23 12:20:43;;;;;;;2.50;1.70;;;;;;;29.69;30.77;100443.75;106247;1271;26524;-78
2022/06/23 12:23:20;;;;;;;2.10;1.20;;;;;;;29.24;31.06;100447.63;106059;1271;22586;-80
2022/06/23 12:26:02;;;;;;;2.70;1.30;;;;;;;29.00;31.12;100445.31;106086;1274;22661;-79
2022/06/23 12:28:38;;;;;;;2.10;1.40;;;;;;;29.08;31.05;100445.88;107030;1271;22593;-78
2022/06/23 12:31:35;;;;;;;3.90;1.30;;;;;;;29.28;30.78;100444.55;107109;1271;22569;-78